Terminal Aerodrome Forecast
Issued by NWS

Home | Current Version | Previous Version | Text Only | Print | Product List | Glossary On
Versions: 1 2 3 4 5 6 7 8 9 10 11 12 13
000
FTUS45 KTFX 111100
TAFHLN
TAF
KHLN 111120Z 1112/1212 32011KT P6SM SCT020 BKN100
      TEMPO 1112/1116 BKN020
     FM111800 01010KT P6SM SCT060
     FM120300 32008KT P6SM BKN080=

USA.gov is the U.S. government's official web portal to all federal, state and local government web resources and services.